Time;durP1;ratioP1;P1;durP2;ratioP2;P2;SDS_P1;SDS_P2;PMS_P1;PMS_P2;Temp;Humidity;BMP_temperature;BMP_pressure;BME280_temperature;BME280_humidity;BME280_pressure;Samples;Min_cycle;Max_cycle;Signal;HPM_P1;HPM_P2
2023/09/02 00:00:30;;;;;;;;;;;;;;;;;;5072387;28;19925;-72
2023/09/02 00:02:57;;;;;;;;;;;;;;;;;;5072319;28;19978;-72
2023/09/02 00:05:24;;;;;;;;;;;;;;;;;;5072066;28;20026;-72
2023/09/02 00:07:51;;;;;;;;;;;;;;;;;;5077083;28;19971;-71
2023/09/02 00:10:18;;;;;;;;;;;;;;;;;;5067166;28;20968;-72
2023/09/02 00:12:45;;;;;;;;;;;;;;;;;;5076376;28;19972;-72
2023/09/02 00:15:12;;;;;;;;;;;;;;;;;;5079298;28;21970;-72
2023/09/02 00:17:40;;;;;;;;;;;;;;;;;;5078396;28;20462;-72
2023/09/02 00:20:09;;;;;;;;;;;;;;;;;;5078369;28;20124;-72
2023/09/02 00:22:36;;;;;;;;;;;;;;;;;;5081295;28;20011;-72
2023/09/02 00:25:03;;;;;;;;;;;;;;;;;;5072854;28;19986;-72
2023/09/02 00:27:30;;;;;;;;;;;;;;;;;;5071614;28;19978;-73
2023/09/02 00:29:57;;;;;;;;;;;;;;;;;;5071471;28;19928;-73
2023/09/02 00:32:24;;;;;;;;;;;;;;;;;;5079908;28;19924;-73
2023/09/02 00:34:51;;;;;;;;;;;;;;;;;;5079774;28;20023;-73
2023/09/02 00:37:18;;;;;;;;;;;;;;;;;;5079459;28;19924;-73
2023/09/02 00:39:45;;;;;;;;;;;;;;;;;;5071318;28;19924;-73
2023/09/02 00:42:12;;;;;;;;;;;;;;;;;;5076238;28;20392;-72
2023/09/02 00:44:39;;;;;;;;;;;;;;;;;;5078170;28;19967;-73
2023/09/02 00:47:06;;;;;;;;;;;;;;;;;;5078848;28;19967;-72
2023/09/02 00:49:33;;;;;;;;;;;;;;;;;;5078668;28;20379;-72
2023/09/02 00:52:00;;;;;;;;;;;;;;;;;;5073714;28;19960;-73
2023/09/02 00:54:27;;;;;;;;;;;;;;;;;;5067847;28;19924;-72
2023/09/02 00:56:54;;;;;;;;;;;;;;;;;;5072793;28;19950;-72
2023/09/02 00:59:22;;;;;;;;;;;;;;;;;;5077305;28;19950;-73
2023/09/02 01:01:49;;;;;;;;;;;;;;;;;;5075870;28;20342;-73
2023/09/02 01:04:16;;;;;;;;;;;;;;;;;;5072263;28;19989;-73
2023/09/02 01:06:43;;;;;;;;;;;;;;;;;;5080520;28;20284;-73
2023/09/02 01:09:10;;;;;;;;;;;;;;;;;;5074523;28;19943;-70
2023/09/02 01:11:37;;;;;;;;;;;;;;;;;;5072890;28;20028;-72
2023/09/02 01:14:04;;;;;;;;;;;;;;;;;;5079183;28;19986;-73
2023/09/02 01:16:31;;;;;;;;;;;;;;;;;;5082454;28;19928;-72
2023/09/02 01:18:58;;;;;;;;;;;;;;;;;;5079661;28;19968;-72
2023/09/02 01:21:25;;;;;;;;;;;;;;;;;;5077202;28;19982;-72
2023/09/02 01:23:52;;;;;;;;;;;;;;;;;;5072127;28;19924;-72
2023/09/02 01:26:20;;;;;;;;;;;;;;;;;;5069986;28;20762;-72
2023/09/02 01:28:47;;;;;;;;;;;;;;;;;;5075593;28;20379;-72
2023/09/02 01:31:14;;;;;;;;;;;;;;;;;;5077855;28;19931;-72
2023/09/02 01:33:41;;;;;;;;;;;;;;;;;;5071410;28;20276;-72
2023/09/02 01:36:08;;;;;;;;;;;;;;;;;;5075019;28;20021;-72
2023/09/02 01:38:36;;;;;;;;;;;;;;;;;;5070379;28;19928;-72
2023/09/02 01:41:04;;;;;;;;;;;;;;;;;;5070063;28;20294;-72
2023/09/02 01:43:31;;;;;;;;;;;;;;;;;;5071736;28;19931;-72
2023/09/02 01:45:58;;;;;;;;;;;;;;;;;;5076951;28;19928;-73
2023/09/02 01:48:26;;;;;;;;;;;;;;;;;;5075174;28;19975;-73
2023/09/02 01:50:53;;;;;;;;;;;;;;;;;;5075602;28;19924;-73
2023/09/02 01:53:20;;;;;;;;;;;;;;;;;;5075778;28;19924;-73
2023/09/02 01:55:47;;;;;;;;;;;;;;;;;;5071572;28;19933;-73
2023/09/02 01:58:14;;;;;;;;;;;;;;;;;;5071585;28;19975;-71
2023/09/02 02:00:41;;;;;;;;;;;;;;;;;;5069342;28;19940;-72
2023/09/02 02:03:09;;;;;;;;;;;;;;;;;;5074651;28;19924;-72
2023/09/02 02:05:36;;;;;;;;;;;;;;;;;;5069073;28;19924;-72
2023/09/02 02:08:03;;;;;;;;;;;;;;;;;;5078771;28;20045;-73
2023/09/02 02:10:30;;;;;;;;;;;;;;;;;;5075080;28;20430;-73
2023/09/02 02:13:01;;;;;;;;;;;;;;;;;;5075484;28;19932;-73
2023/09/02 02:15:29;;;;;;;;;;;;;;;;;;5075382;28;20055;-73
2023/09/02 02:17:55;;;;;;;;;;;;;;;;;;5074829;28;20671;-73
2023/09/02 02:20:25;;;;;;;;;;;;;;;;;;5071509;28;19944;-73
2023/09/02 02:22:52;;;;;;;;;;;;;;;;;;5083964;28;19960;-73
2023/09/02 02:25:19;;;;;;;;;;;;;;;;;;5078234;28;19928;-73
2023/09/02 02:27:45;;;;;;;;;;;;;;;;;;5077492;28;19967;-73
2023/09/02 02:30:12;;;;;;;;;;;;;;;;;;5077901;28;19967;-73
2023/09/02 02:32:39;;;;;;;;;;;;;;;;;;5079479;28;19990;-72
2023/09/02 02:35:06;;;;;;;;;;;;;;;;;;5079632;28;19971;-73
2023/09/02 02:37:33;;;;;;;;;;;;;;;;;;5081882;28;20019;-73
2023/09/02 02:40:00;;;;;;;;;;;;;;;;;;5080485;28;20341;-73
2023/09/02 02:42:27;;;;;;;;;;;;;;;;;;5083566;28;19932;-73
2023/09/02 02:44:54;;;;;;;;;;;;;;;;;;5077646;28;19985;-72
2023/09/02 02:47:21;;;;;;;;;;;;;;;;;;5062967;28;19981;-72
2023/09/02 02:49:48;;;;;;;;;;;;;;;;;;5080879;28;19982;-72
2023/09/02 02:52:15;;;;;;;;;;;;;;;;;;5073707;28;19925;-72
2023/09/02 02:54:42;;;;;;;;;;;;;;;;;;5069065;28;19975;-71
2023/09/02 02:57:09;;;;;;;;;;;;;;;;;;5057992;28;19929;-72
2023/09/02 02:59:36;;;;;;;;;;;;;;;;;;5059105;28;19971;-72
2023/09/02 03:02:03;;;;;;;;;;;;;;;;;;5070170;28;19977;-73
2023/09/02 03:04:32;;;;;;;;;;;;;;;;;;5074014;28;19925;-73
2023/09/02 03:06:59;;;;;;;;;;;;;;;;;;5080887;28;19997;-73
2023/09/02 03:09:26;;;;;;;;;;;;;;;;;;5076600;28;19924;-73
2023/09/02 03:11:53;;;;;;;;;;;;;;;;;;5081163;28;19935;-73
2023/09/02 03:14:20;;;;;;;;;;;;;;;;;;5077910;28;19925;-72
2023/09/02 03:16:47;;;;;;;;;;;;;;;;;;5080062;28;19924;-73
2023/09/02 03:19:14;;;;;;;;;;;;;;;;;;5079269;28;20065;-72
2023/09/02 03:21:41;;;;;;;;;;;;;;;;;;5078707;28;19932;-74
2023/09/02 03:24:08;;;;;;;;;;;;;;;;;;5071039;28;20360;-73
2023/09/02 03:26:35;;;;;;;;;;;;;;;;;;5079774;28;19924;-73
2023/09/02 03:29:02;;;;;;;;;;;;;;;;;;5075234;28;19932;-73
2023/09/02 03:31:29;;;;;;;;;;;;;;;;;;5076875;28;19924;-73
2023/09/02 03:33:56;;;;;;;;;;;;;;;;;;5088757;28;20041;-73
2023/09/02 03:36:23;;;;;;;;;;;;;;;;;;5082349;28;19931;-73
2023/09/02 03:38:50;;;;;;;;;;;;;;;;;;5076725;28;19924;-73
2023/09/02 03:41:18;;;;;;;;;;;;;;;;;;5078824;28;19959;-72
2023/09/02 03:43:45;;;;;;;;;;;;;;;;;;5079694;28;19947;-71
2023/09/02 03:46:12;;;;;;;;;;;;;;;;;;5075075;28;20023;-72
2023/09/02 03:48:39;;;;;;;;;;;;;;;;;;5080996;28;20508;-72
2023/09/02 03:51:11;;;;;;;;;;;;;;;;;;5079290;28;19924;-73
2023/09/02 03:53:38;;;;;;;;;;;;;;;;;;5076291;28;20357;-72
2023/09/02 03:56:05;;;;;;;;;;;;;;;;;;5074158;28;19928;-72
2023/09/02 03:58:32;;;;;;;;;;;;;;;;;;5065619;28;19928;-72
2023/09/02 04:00:59;;;;;;;;;;;;;;;;;;5074330;28;19971;-73
2023/09/02 04:03:26;;;;;;;;;;;;;;;;;;5079924;28;20344;-72
2023/09/02 04:05:53;;;;;;;;;;;;;;;;;;5078741;28;19931;-73
2023/09/02 04:08:20;;;;;;;;;;;;;;;;;;5077130;28;20462;-73
2023/09/02 04:10:47;;;;;;;;;;;;;;;;;;5077727;28;19929;-72
2023/09/02 04:13:14;;;;;;;;;;;;;;;;;;5079814;28;21247;-73
2023/09/02 04:15:41;;;;;;;;;;;;;;;;;;5078090;28;20322;-73
2023/09/02 04:18:08;;;;;;;;;;;;;;;;;;5077354;28;19928;-73
2023/09/02 04:20:35;;;;;;;;;;;;;;;;;;5080618;28;20817;-73
2023/09/02 04:23:02;;;;;;;;;;;;;;;;;;5080911;28;19972;-73
2023/09/02 04:25:29;;;;;;;;;;;;;;;;;;5074811;28;19924;-73
2023/09/02 04:27:56;;;;;;;;;;;;;;;;;;5060956;28;19928;-73
2023/09/02 04:30:23;;;;;;;;;;;;;;;;;;5061377;28;19946;-73
2023/09/02 04:32:50;;;;;;;;;;;;;;;;;;5076862;28;19928;-73
2023/09/02 04:35:17;;;;;;;;;;;;;;;;;;5088141;28;19924;-73
2023/09/02 04:37:45;;;;;;;;;;;;;;;;;;5077795;28;19963;-73
2023/09/02 04:40:13;;;;;;;;;;;;;;;;;;5073168;28;19928;-74
2023/09/02 04:42:41;;;;;;;;;;;;;;;;;;5079811;28;19933;-73
2023/09/02 04:45:08;;;;;;;;;;;;;;;;;;5076303;28;20015;-73
2023/09/02 04:47:35;;;;;;;;;;;;;;;;;;5071493;28;19928;-73
2023/09/02 04:50:04;;;;;;;;;;;;;;;;;;5078601;28;19928;-73
2023/09/02 04:52:31;;;;;;;;;;;;;;;;;;5063068;28;19947;-74
2023/09/02 04:54:58;;;;;;;;;;;;;;;;;;5072486;28;19977;-74
2023/09/02 04:57:25;;;;;;;;;;;;;;;;;;5072655;28;19998;-74
2023/09/02 04:59:52;;;;;;;;;;;;;;;;;;5073320;28;20325;-73
2023/09/02 05:02:19;;;;;;;;;;;;;;;;;;5069140;28;20005;-72
2023/09/02 05:04:46;;;;;;;;;;;;;;;;;;5060887;28;19970;-72
2023/09/02 05:07:13;;;;;;;;;;;;;;;;;;5068815;28;19928;-72
2023/09/02 05:09:40;;;;;;;;;;;;;;;;;;5056064;28;19929;-72
2023/09/02 05:12:07;;;;;;;;;;;;;;;;;;5082201;28;19924;-73
2023/09/02 05:14:34;;;;;;;;;;;;;;;;;;5077613;28;19977;-72
2023/09/02 05:17:02;;;;;;;;;;;;;;;;;;5077319;28;20016;-73
2023/09/02 05:19:29;;;;;;;;;;;;;;;;;;5076154;28;19928;-72
2023/09/02 05:21:57;;;;;;;;;;;;;;;;;;5079130;28;19928;-73
2023/09/02 05:24:24;;;;;;;;;;;;;;;;;;5081052;28;19924;-72
2023/09/02 05:26:51;;;;;;;;;;;;;;;;;;5075577;28;20457;-72
2023/09/02 05:29:18;;;;;;;;;;;;;;;;;;5061423;28;19924;-72
2023/09/02 05:31:45;;;;;;;;;;;;;;;;;;5076460;28;20387;-72
2023/09/02 05:34:12;;;;;;;;;;;;;;;;;;5070110;28;19971;-72
2023/09/02 05:36:39;;;;;;;;;;;;;;;;;;5062897;28;19983;-72
2023/09/02 05:39:06;;;;;;;;;;;;;;;;;;5052712;28;20269;-72
2023/09/02 05:41:33;;;;;;;;;;;;;;;;;;5076173;28;19928;-73
2023/09/02 05:44:00;;;;;;;;;;;;;;;;;;5080121;28;19990;-72
2023/09/02 05:46:29;;;;;;;;;;;;;;;;;;5076594;28;20448;-72
2023/09/02 05:48:56;;;;;;;;;;;;;;;;;;5063066;28;19925;-71
2023/09/02 05:51:25;;;;;;;;;;;;;;;;;;5062460;28;19986;-71
2023/09/02 05:53:52;;;;;;;;;;;;;;;;;;5062869;28;20026;-71
2023/09/02 05:56:19;;;;;;;;;;;;;;;;;;5060152;28;20391;-72
2023/09/02 05:58:46;;;;;;;;;;;;;;;;;;5061794;28;19925;-71
2023/09/02 06:01:13;;;;;;;;;;;;;;;;;;5063117;28;19924;-72
2023/09/02 06:03:40;;;;;;;;;;;;;;;;;;5070487;28;19932;-73
2023/09/02 06:06:07;;;;;;;;;;;;;;;;;;5069807;28;19924;-72
2023/09/02 06:08:34;;;;;;;;;;;;;;;;;;5071241;28;19925;-72
2023/09/02 06:11:01;;;;;;;;;;;;;;;;;;5073785;28;20348;-72
2023/09/02 06:13:28;;;;;;;;;;;;;;;;;;5071078;28;20295;-72
2023/09/02 06:15:55;;;;;;;;;;;;;;;;;;5065277;28;19924;-73
2023/09/02 06:18:22;;;;;;;;;;;;;;;;;;5082632;28;19924;-73
2023/09/02 06:20:49;;;;;;;;;;;;;;;;;;5073894;28;19924;-72
2023/09/02 06:23:16;;;;;;;;;;;;;;;;;;5075002;28;19925;-72
2023/09/02 06:25:43;;;;;;;;;;;;;;;;;;5062282;28;19970;-73
2023/09/02 06:28:10;;;;;;;;;;;;;;;;;;5053564;28;19979;-72
2023/09/02 06:30:37;;;;;;;;;;;;;;;;;;5064840;28;20414;-72
2023/09/02 06:33:04;;;;;;;;;;;;;;;;;;5081948;28;19972;-71
2023/09/02 06:35:31;;;;;;;;;;;;;;;;;;5090454;28;19924;-71
2023/09/02 06:37:58;;;;;;;;;;;;;;;;;;5073006;28;19994;-72
2023/09/02 06:40:25;;;;;;;;;;;;;;;;;;5060429;28;19956;-72
2023/09/02 06:42:52;;;;;;;;;;;;;;;;;;5055573;28;19932;-72
2023/09/02 06:45:19;;;;;;;;;;;;;;;;;;5066988;28;19926;-71
2023/09/02 06:47:46;;;;;;;;;;;;;;;;;;5070728;28;20334;-72
2023/09/02 06:50:13;;;;;;;;;;;;;;;;;;5081744;28;19924;-72
2023/09/02 06:52:40;;;;;;;;;;;;;;;;;;5066664;28;19983;-72
2023/09/02 06:55:07;;;;;;;;;;;;;;;;;;5064094;28;19924;-73
2023/09/02 06:57:34;;;;;;;;;;;;;;;;;;5067536;28;19928;-74
2023/09/02 07:00:01;;;;;;;;;;;;;;;;;;5067054;28;19970;-74
2023/09/02 07:02:28;;;;;;;;;;;;;;;;;;5065304;28;19925;-72
2023/09/02 07:04:55;;;;;;;;;;;;;;;;;;5068835;28;20295;-73
2023/09/02 07:07:22;;;;;;;;;;;;;;;;;;5072586;28;19925;-71
2023/09/02 07:09:49;;;;;;;;;;;;;;;;;;5053967;28;20384;-71
2023/09/02 07:12:16;;;;;;;;;;;;;;;;;;5064875;28;19925;-71
2023/09/02 07:14:43;;;;;;;;;;;;;;;;;;5078086;28;20334;-70
2023/09/02 07:17:10;;;;;;;;;;;;;;;;;;5081939;28;19925;-71
2023/09/02 07:19:37;;;;;;;;;;;;;;;;;;5073460;28;20346;-70
2023/09/02 07:22:04;;;;;;;;;;;;;;;;;;5081397;28;19928;-70
2023/09/02 07:24:31;;;;;;;;;;;;;;;;;;5083035;28;20287;-69
2023/09/02 07:26:58;;;;;;;;;;;;;;;;;;5091802;28;19924;-70
2023/09/02 07:29:25;;;;;;;;;;;;;;;;;;5092716;28;19975;-71
2023/09/02 07:31:53;;;;;;;;;;;;;;;;;;5075682;28;19940;-70
2023/09/02 07:34:20;;;;;;;;;;;;;;;;;;5069727;28;19928;-71
2023/09/02 07:36:47;;;;;;;;;;;;;;;;;;5062924;28;19935;-70
2023/09/02 07:39:16;;;;;;;;;;;;;;;;;;5075818;28;19925;-72
2023/09/02 07:41:43;;;;;;;;;;;;;;;;;;5087578;28;19951;-71
2023/09/02 07:44:10;;;;;;;;;;;;;;;;;;5079878;28;20437;-72
2023/09/02 07:46:37;;;;;;;;;;;;;;;;;;5056169;28;19932;-72
2023/09/02 07:49:04;;;;;;;;;;;;;;;;;;5068028;28;19924;-72
2023/09/02 07:51:31;;;;;;;;;;;;;;;;;;5075018;28;20295;-72
2023/09/02 07:53:58;;;;;;;;;;;;;;;;;;5066714;28;19978;-72
2023/09/02 07:56:25;;;;;;;;;;;;;;;;;;4991983;28;1801149;-70
2023/09/02 07:58:52;;;;;;;;;;;;;;;;;;5062548;28;19924;-70
2023/09/02 08:01:20;;;;;;;;;;;;;;;;;;5054090;28;20387;-70
2023/09/02 08:03:47;;;;;;;;;;;;;;;;;;5071044;28;19924;-71
2023/09/02 08:06:14;;;;;;;;;;;;;;;;;;5070160;28;20392;-70
2023/09/02 08:08:41;;;;;;;;;;;;;;;;;;5077101;28;19924;-70
2023/09/02 08:11:09;;;;;;;;;;;;;;;;;;5062876;28;19929;-70
2023/09/02 08:13:36;;;;;;;;;;;;;;;;;;5083810;28;20381;-70
2023/09/02 08:16:03;;;;;;;;;;;;;;;;;;5086718;28;19928;-70
2023/09/02 08:18:30;;;;;;;;;;;;;;;;;;5089743;28;19924;-71
2023/09/02 08:20:57;;;;;;;;;;;;;;;;;;5069313;28;20360;-71
2023/09/02 08:23:24;;;;;;;;;;;;;;;;;;5071805;28;19925;-70
2023/09/02 08:25:51;;;;;;;;;;;;;;;;;;5067079;28;20332;-73
2023/09/02 08:28:18;;;;;;;;;;;;;;;;;;5070116;28;19978;-72
2023/09/02 08:30:45;;;;;;;;;;;;;;;;;;5069833;28;20330;-72
2023/09/02 08:33:12;;;;;;;;;;;;;;;;;;5068398;28;19924;-73
2023/09/02 08:35:39;;;;;;;;;;;;;;;;;;5071290;28;20396;-73
2023/09/02 08:38:06;;;;;;;;;;;;;;;;;;5067002;28;19928;-73
2023/09/02 08:40:34;;;;;;;;;;;;;;;;;;5069479;28;19925;-72
2023/09/02 08:43:01;;;;;;;;;;;;;;;;;;5060587;28;20027;-73
2023/09/02 08:45:28;;;;;;;;;;;;;;;;;;5072786;28;19963;-72
2023/09/02 08:47:55;;;;;;;;;;;;;;;;;;5071338;28;19931;-72
2023/09/02 08:50:22;;;;;;;;;;;;;;;;;;5055815;28;19925;-72
2023/09/02 08:52:51;;;;;;;;;;;;;;;;;;5060196;28;20062;-72
2023/09/02 08:55:18;;;;;;;;;;;;;;;;;;5072547;28;19967;-72
2023/09/02 08:57:45;;;;;;;;;;;;;;;;;;5073446;28;20029;-71
2023/09/02 09:00:12;;;;;;;;;;;;;;;;;;5072194;28;20039;-72
2023/09/02 09:02:39;;;;;;;;;;;;;;;;;;5066417;28;19925;-72
2023/09/02 09:05:06;;;;;;;;;;;;;;;;;;5064609;28;20069;-73
2023/09/02 09:07:33;;;;;;;;;;;;;;;;;;5072877;28;19924;-72
2023/09/02 09:10:00;;;;;;;;;;;;;;;;;;5069138;28;19954;-73
2023/09/02 09:12:27;;;;;;;;;;;;;;;;;;5067426;28;19932;-72
2023/09/02 09:14:54;;;;;;;;;;;;;;;;;;5066685;28;19951;-73
2023/09/02 09:17:21;;;;;;;;;;;;;;;;;;5060648;28;20026;-72
2023/09/02 09:19:48;;;;;;;;;;;;;;;;;;5067807;28;19925;-72
2023/09/02 09:22:15;;;;;;;;;;;;;;;;;;5068964;28;20361;-72
2023/09/02 09:24:42;;;;;;;;;;;;;;;;;;5058585;28;19970;-71
2023/09/02 09:27:10;;;;;;;;;;;;;;;;;;5071944;28;19978;-71
2023/09/02 09:29:37;;;;;;;;;;;;;;;;;;5070461;28;19950;-71
2023/09/02 09:32:04;;;;;;;;;;;;;;;;;;5068756;28;19932;-71
2023/09/02 09:34:31;;;;;;;;;;;;;;;;;;5066233;28;19924;-72
2023/09/02 09:36:58;;;;;;;;;;;;;;;;;;5062171;28;19929;-70
2023/09/02 09:39:25;;;;;;;;;;;;;;;;;;5070931;28;19924;-70
2023/09/02 09:41:52;;;;;;;;;;;;;;;;;;5063902;28;20319;-71
2023/09/02 09:44:19;;;;;;;;;;;;;;;;;;5062109;28;20341;-70
2023/09/02 09:46:46;;;;;;;;;;;;;;;;;;5058336;28;19960;-70
2023/09/02 09:49:13;;;;;;;;;;;;;;;;;;5052139;28;19925;-70
2023/09/02 09:51:40;;;;;;;;;;;;;;;;;;5060552;28;19944;-70
2023/09/02 09:54:08;;;;;;;;;;;;;;;;;;5052671;28;19988;-69
2023/09/02 09:56:35;;;;;;;;;;;;;;;;;;5065586;28;20008;-69
2023/09/02 09:59:02;;;;;;;;;;;;;;;;;;5071813;28;19978;-70
2023/09/02 10:01:29;;;;;;;;;;;;;;;;;;5071935;28;19924;-69
2023/09/02 10:03:56;;;;;;;;;;;;;;;;;;5070267;28;19930;-70
2023/09/02 10:06:23;;;;;;;;;;;;;;;;;;5055088;28;19986;-69
2023/09/02 10:08:50;;;;;;;;;;;;;;;;;;5068505;28;19932;-70
2023/09/02 10:11:18;;;;;;;;;;;;;;;;;;5065326;28;19975;-70
2023/09/02 10:13:45;;;;;;;;;;;;;;;;;;5064588;28;19931;-71
2023/09/02 10:16:12;;;;;;;;;;;;;;;;;;5068037;28;20380;-71
2023/09/02 10:18:39;;;;;;;;;;;;;;;;;;5065634;28;20098;-71
2023/09/02 10:21:06;;;;;;;;;;;;;;;;;;5064679;28;19924;-71
2023/09/02 10:23:33;;;;;;;;;;;;;;;;;;5068890;28;19986;-72
2023/09/02 10:26:00;;;;;;;;;;;;;;;;;;5058290;28;19967;-72
2023/09/02 10:28:27;;;;;;;;;;;;;;;;;;5064966;28;19925;-72
2023/09/02 10:30:54;;;;;;;;;;;;;;;;;;5062502;28;19975;-71
2023/09/02 10:33:21;;;;;;;;;;;;;;;;;;5068516;28;19924;-73
2023/09/02 10:35:50;;;;;;;;;;;;;;;;;;5071866;28;19924;-72
2023/09/02 10:38:17;;;;;;;;;;;;;;;;;;5069392;28;19936;-72
2023/09/02 10:40:44;;;;;;;;;;;;;;;;;;5069290;28;20329;-71
2023/09/02 10:43:11;;;;;;;;;;;;;;;;;;5065410;28;19932;-71
2023/09/02 10:45:39;;;;;;;;;;;;;;;;;;5075137;28;20311;-71
2023/09/02 10:48:06;;;;;;;;;;;;;;;;;;5070967;28;20235;-71
2023/09/02 10:50:33;;;;;;;;;;;;;;;;;;5065423;28;20001;-71
2023/09/02 10:53:00;;;;;;;;;;;;;;;;;;5059041;28;19975;-72
2023/09/02 10:55:31;;;;;;;;;;;;;;;;;;5069020;28;19925;-72
2023/09/02 10:57:58;;;;;;;;;;;;;;;;;;5054832;28;19925;-71
2023/09/02 11:00:25;;;;;;;;;;;;;;;;;;5071204;28;19970;-71
2023/09/02 11:02:52;;;;;;;;;;;;;;;;;;5071986;28;19968;-71
2023/09/02 11:05:19;;;;;;;;;;;;;;;;;;5070800;28;19924;-77
2023/09/02 11:07:47;;;;;;;;;;;;;;;;;;5072035;28;20376;-71
2023/09/02 11:10:14;;;;;;;;;;;;;;;;;;5069648;28;19929;-71
2023/09/02 11:12:40;;;;;;;;;;;;;;;;;;5062759;28;20350;-71
2023/09/02 11:15:07;;;;;;;;;;;;;;;;;;5074844;28;19925;-71
2023/09/02 11:17:34;;;;;;;;;;;;;;;;;;5058022;28;19924;-71
2023/09/02 11:20:01;;;;;;;;;;;;;;;;;;5059112;28;19975;-71
2023/09/02 11:22:28;;;;;;;;;;;;;;;;;;5072539;28;20330;-71
2023/09/02 11:24:55;;;;;;;;;;;;;;;;;;5061919;28;19925;-71
2023/09/02 11:27:22;;;;;;;;;;;;;;;;;;5074441;28;20379;-72
2023/09/02 11:29:49;;;;;;;;;;;;;;;;;;5071850;28;19925;-70
2023/09/02 11:32:16;;;;;;;;;;;;;;;;;;5074960;28;19924;-72
2023/09/02 11:34:43;;;;;;;;;;;;;;;;;;5055614;28;19924;-71
2023/09/02 11:37:11;;;;;;;;;;;;;;;;;;5054659;28;19986;-71
2023/09/02 11:39:38;;;;;;;;;;;;;;;;;;5056686;28;20380;-71
2023/09/02 11:42:05;;;;;;;;;;;;;;;;;;5074225;28;19970;-71
2023/09/02 11:44:32;;;;;;;;;;;;;;;;;;5074754;28;19970;-71
2023/09/02 11:46:59;;;;;;;;;;;;;;;;;;5074686;28;19924;-71
2023/09/02 11:49:26;;;;;;;;;;;;;;;;;;5072230;28;19924;-71
2023/09/02 11:51:53;;;;;;;;;;;;;;;;;;5072655;28;20284;-71
2023/09/02 11:54:20;;;;;;;;;;;;;;;;;;5073437;28;19970;-71
2023/09/02 11:56:47;;;;;;;;;;;;;;;;;;5070446;28;19925;-71
2023/09/02 11:59:14;;;;;;;;;;;;;;;;;;5074576;28;19925;-71
2023/09/02 12:01:41;;;;;;;;;;;;;;;;;;5073584;28;20357;-71
2023/09/02 12:04:08;;;;;;;;;;;;;;;;;;5074016;28;19925;-72
2023/09/02 12:06:35;;;;;;;;;;;;;;;;;;5073672;28;20379;-71
2023/09/02 12:09:02;;;;;;;;;;;;;;;;;;5065250;28;19925;-71
2023/09/02 12:11:29;;;;;;;;;;;;;;;;;;5067858;28;20322;-72
2023/09/02 12:13:56;;;;;;;;;;;;;;;;;;5074037;28;19970;-71
2023/09/02 12:16:23;;;;;;;;;;;;;;;;;;5073182;28;19978;-71
2023/09/02 12:18:50;;;;;;;;;;;;;;;;;;5073635;28;19970;-71
2023/09/02 12:21:17;;;;;;;;;;;;;;;;;;5073780;28;20306;-72
2023/09/02 12:23:45;;;;;;;;;;;;;;;;;;5073856;28;19928;-71
2023/09/02 12:26:13;;;;;;;;;;;;;;;;;;5073137;28;19925;-72
2023/09/02 12:28:40;;;;;;;;;;;;;;;;;;5071291;28;19924;-72
2023/09/02 12:31:07;;;;;;;;;;;;;;;;;;5073882;28;19977;-73
2023/09/02 12:33:34;;;;;;;;;;;;;;;;;;5073223;28;19925;-72
2023/09/02 12:36:01;;;;;;;;;;;;;;;;;;5073438;28;19925;-73
2023/09/02 12:38:28;;;;;;;;;;;;;;;;;;5073518;28;19924;-71
2023/09/02 12:40:55;;;;;;;;;;;;;;;;;;5072008;28;19929;-72
2023/09/02 12:43:22;;;;;;;;;;;;;;;;;;5073999;28;19995;-73
2023/09/02 12:45:49;;;;;;;;;;;;;;;;;;5070017;28;20387;-73
2023/09/02 12:48:16;;;;;;;;;;;;;;;;;;5073270;28;19924;-73
2023/09/02 12:50:43;;;;;;;;;;;;;;;;;;5069091;28;19972;-73
2023/09/02 12:53:10;;;;;;;;;;;;;;;;;;5072620;28;20303;-73
2023/09/02 12:55:37;;;;;;;;;;;;;;;;;;5066924;28;19955;-72
2023/09/02 12:58:04;;;;;;;;;;;;;;;;;;5071909;28;19924;-73
2023/09/02 13:00:31;;;;;;;;;;;;;;;;;;5073005;28;20006;-73
2023/09/02 13:02:58;;;;;;;;;;;;;;;;;;5070413;28;19944;-72
2023/09/02 13:05:25;;;;;;;;;;;;;;;;;;5069804;28;19954;-75
2023/09/02 13:07:52;;;;;;;;;;;;;;;;;;5072714;28;19925;-75
2023/09/02 13:10:19;;;;;;;;;;;;;;;;;;5064752;28;19924;-74
2023/09/02 13:12:46;;;;;;;;;;;;;;;;;;5067599;28;19963;-74
2023/09/02 13:15:13;;;;;;;;;;;;;;;;;;5069518;28;19932;-72
2023/09/02 13:17:40;;;;;;;;;;;;;;;;;;5072765;28;20027;-72
2023/09/02 13:20:09;;;;;;;;;;;;;;;;;;5072104;28;20318;-72
2023/09/02 13:22:36;;;;;;;;;;;;;;;;;;5065574;28;19925;-71
2023/09/02 13:25:04;;;;;;;;;;;;;;;;;;5068720;28;19925;-71
2023/09/02 13:27:31;;;;;;;;;;;;;;;;;;5070577;28;20320;-71
2023/09/02 13:29:58;;;;;;;;;;;;;;;;;;5066734;28;19928;-72
2023/09/02 13:32:25;;;;;;;;;;;;;;;;;;5060688;28;19924;-72
2023/09/02 13:34:52;;;;;;;;;;;;;;;;;;5069955;28;19924;-72
2023/09/02 13:37:19;;;;;;;;;;;;;;;;;;5068464;28;19999;-71
2023/09/02 13:39:46;;;;;;;;;;;;;;;;;;5065189;28;19925;-71
2023/09/02 13:42:13;;;;;;;;;;;;;;;;;;5072022;28;19974;-71
2023/09/02 13:44:42;;;;;;;;;;;;;;;;;;5064258;28;20577;-71
2023/09/02 13:47:09;;;;;;;;;;;;;;;;;;5064356;28;19924;-72
2023/09/02 13:49:36;;;;;;;;;;;;;;;;;;5060234;28;19924;-71
2023/09/02 13:52:03;;;;;;;;;;;;;;;;;;5055570;28;19948;-72
2023/09/02 13:54:30;;;;;;;;;;;;;;;;;;5065945;28;19925;-71
2023/09/02 13:56:57;;;;;;;;;;;;;;;;;;5070568;28;20342;-72
2023/09/02 13:59:24;;;;;;;;;;;;;;;;;;5070670;28;19956;-71
2023/09/02 14:01:51;;;;;;;;;;;;;;;;;;5070835;28;19935;-72
2023/09/02 14:04:18;;;;;;;;;;;;;;;;;;5071300;28;19963;-73
2023/09/02 14:06:45;;;;;;;;;;;;;;;;;;5062213;28;19924;-73
2023/09/02 14:09:12;;;;;;;;;;;;;;;;;;5061048;28;19982;-73
2023/09/02 14:11:39;;;;;;;;;;;;;;;;;;5068130;28;20002;-71
2023/09/02 14:14:06;;;;;;;;;;;;;;;;;;5070801;28;19924;-73
2023/09/02 14:16:33;;;;;;;;;;;;;;;;;;5070616;28;19924;-72
2023/09/02 14:19:01;;;;;;;;;;;;;;;;;;5074482;28;19928;-72
2023/09/02 14:21:28;;;;;;;;;;;;;;;;;;5072522;28;19924;-71
2023/09/02 14:23:55;;;;;;;;;;;;;;;;;;5072675;28;19925;-70
2023/09/02 14:26:22;;;;;;;;;;;;;;;;;;5072438;28;19972;-72
2023/09/02 14:28:49;;;;;;;;;;;;;;;;;;5072911;28;19982;-72
2023/09/02 14:31:16;;;;;;;;;;;;;;;;;;5067771;28;19929;-70
2023/09/02 14:33:43;;;;;;;;;;;;;;;;;;5069528;28;19982;-72
2023/09/02 14:36:10;;;;;;;;;;;;;;;;;;5070703;28;19928;-74
2023/09/02 14:38:37;;;;;;;;;;;;;;;;;;5071089;28;19924;-72
2023/09/02 14:41:04;;;;;;;;;;;;;;;;;;5072600;28;19924;-74
2023/09/02 14:43:31;;;;;;;;;;;;;;;;;;5074724;28;19925;-72
2023/09/02 14:45:58;;;;;;;;;;;;;;;;;;5073145;28;19998;-73
2023/09/02 14:48:25;;;;;;;;;;;;;;;;;;5066087;28;20013;-72
2023/09/02 14:50:52;;;;;;;;;;;;;;;;;;5069205;28;19937;-72
2023/09/02 14:53:19;;;;;;;;;;;;;;;;;;5071340;28;20290;-73
2023/09/02 14:55:46;;;;;;;;;;;;;;;;;;5071482;28;19924;-74
2023/09/02 14:58:13;;;;;;;;;;;;;;;;;;5066155;28;20383;-73
2023/09/02 15:00:40;;;;;;;;;;;;;;;;;;5075293;28;19924;-71
2023/09/02 15:03:07;;;;;;;;;;;;;;;;;;5072768;28;19924;-74
2023/09/02 15:05:34;;;;;;;;;;;;;;;;;;5074347;28;19979;-73
2023/09/02 15:08:01;;;;;;;;;;;;;;;;;;5072014;28;19986;-74
2023/09/02 15:10:29;;;;;;;;;;;;;;;;;;5073393;28;20344;-74
2023/09/02 15:12:56;;;;;;;;;;;;;;;;;;5072345;28;19932;-73
2023/09/02 15:15:24;;;;;;;;;;;;;;;;;;5072916;28;20006;-73
2023/09/02 15:17:51;;;;;;;;;;;;;;;;;;5072233;28;19987;-73
2023/09/02 15:20:18;;;;;;;;;;;;;;;;;;5073009;28;19924;-73
2023/09/02 15:22:45;;;;;;;;;;;;;;;;;;5073360;28;20391;-73
2023/09/02 15:25:12;;;;;;;;;;;;;;;;;;5069240;28;19928;-73
2023/09/02 15:27:39;;;;;;;;;;;;;;;;;;5074553;28;20437;-73
2023/09/02 15:30:06;;;;;;;;;;;;;;;;;;5073748;28;19924;-74
2023/09/02 15:32:33;;;;;;;;;;;;;;;;;;5073325;28;19928;-74
2023/09/02 15:35:00;;;;;;;;;;;;;;;;;;5065443;28;19925;-74
2023/09/02 15:37:27;;;;;;;;;;;;;;;;;;5069354;28;19925;-74
2023/09/02 15:39:54;;;;;;;;;;;;;;;;;;5068147;28;20306;-74
2023/09/02 15:42:21;;;;;;;;;;;;;;;;;;5065736;28;20063;-75
2023/09/02 15:44:48;;;;;;;;;;;;;;;;;;5069665;28;19958;-74
2023/09/02 15:47:15;;;;;;;;;;;;;;;;;;5071887;28;19924;-75
2023/09/02 15:49:42;;;;;;;;;;;;;;;;;;5055692;28;20003;-74
2023/09/02 15:52:09;;;;;;;;;;;;;;;;;;5072490;28;19928;-74
2023/09/02 15:54:37;;;;;;;;;;;;;;;;;;5073951;28;19924;-74
2023/09/02 15:57:04;;;;;;;;;;;;;;;;;;5074389;28;19941;-74
2023/09/02 15:59:31;;;;;;;;;;;;;;;;;;5072489;28;19936;-73
2023/09/02 16:01:58;;;;;;;;;;;;;;;;;;5072837;28;19928;-75
2023/09/02 16:04:25;;;;;;;;;;;;;;;;;;5065109;28;19925;-74
2023/09/02 16:06:52;;;;;;;;;;;;;;;;;;5068736;28;19948;-74
2023/09/02 16:09:19;;;;;;;;;;;;;;;;;;5066518;28;19951;-75
2023/09/02 16:11:48;;;;;;;;;;;;;;;;;;5070075;28;20354;-75
2023/09/02 16:14:15;;;;;;;;;;;;;;;;;;5072945;28;20480;-73
2023/09/02 16:16:42;;;;;;;;;;;;;;;;;;5064200;28;19929;-74
2023/09/02 16:19:09;;;;;;;;;;;;;;;;;;5070571;28;19967;-75
2023/09/02 16:21:36;;;;;;;;;;;;;;;;;;5065193;28;19963;-75
2023/09/02 16:24:03;;;;;;;;;;;;;;;;;;5071736;28;19975;-75
2023/09/02 16:26:30;;;;;;;;;;;;;;;;;;5069232;28;19998;-75
2023/09/02 16:28:57;;;;;;;;;;;;;;;;;;5062892;28;19928;-74
2023/09/02 16:31:24;;;;;;;;;;;;;;;;;;5061676;28;19925;-74
2023/09/02 16:33:51;;;;;;;;;;;;;;;;;;5066428;28;19955;-74
2023/09/02 16:36:18;;;;;;;;;;;;;;;;;;5064427;28;20021;-75
2023/09/02 16:38:45;;;;;;;;;;;;;;;;;;5067460;28;19978;-75
2023/09/02 16:41:12;;;;;;;;;;;;;;;;;;5066509;28;20194;-74
2023/09/02 16:43:39;;;;;;;;;;;;;;;;;;5063969;28;20073;-76